sensor_id;sensor_type;location;lat;lon;timestamp;P1;P2;P0
56069;PMS5003;41944;52.078;-0.058;2022-12-18T00:01:14;81;68;
56069;PMS5003;41944;52.078;-0.058;2022-12-18T00:03:43;68;58;
56069;PMS5003;41944;52.078;-0.058;2022-12-18T00:06:11;66;64;
56069;PMS5003;41944;52.078;-0.058;2022-12-18T00:08:38;74;61;
56069;PMS5003;41944;52.078;-0.058;2022-12-18T00:11:05;74;59;
56069;PMS5003;41944;52.078;-0.058;2022-12-18T00:13:34;66;59;
56069;PMS5003;41944;52.078;-0.058;2022-12-18T00:16:02;72;58;
56069;PMS5003;41944;52.078;-0.058;2022-12-18T00:18:30;65;57;
56069;PMS5003;41944;52.078;-0.058;2022-12-18T00:20:58;67;60;
56069;PMS5003;41944;52.078;-0.058;2022-12-18T00:23:25;84;64;
56069;PMS5003;41944;52.078;-0.058;2022-12-18T00:25:52;120;95;
56069;PMS5003;41944;52.078;-0.058;2022-12-18T00:28:19;64;56;
56069;PMS5003;41944;52.078;-0.058;2022-12-18T00:30:47;66;57;
56069;PMS5003;41944;52.078;-0.058;2022-12-18T00:33:14;65;53;
56069;PMS5003;41944;52.078;-0.058;2022-12-18T00:35:41;87;67;
56069;PMS5003;41944;52.078;-0.058;2022-12-18T00:38:08;64;56;
56069;PMS5003;41944;52.078;-0.058;2022-12-18T00:40:36;77;62;
56069;PMS5003;41944;52.078;-0.058;2022-12-18T00:43:03;71;58;
56069;PMS5003;41944;52.078;-0.058;2022-12-18T00:45:31;67;60;
56069;PMS5003;41944;52.078;-0.058;2022-12-18T00:47:57;120;98;
56069;PMS5003;41944;52.078;-0.058;2022-12-18T00:50:25;58;52;
56069;PMS5003;41944;52.078;-0.058;2022-12-18T00:52:52;75;59;
56069;PMS5003;41944;52.078;-0.058;2022-12-18T00:55:19;75;63;
56069;PMS5003;41944;52.078;-0.058;2022-12-18T00:57:46;69;54;
56069;PMS5003;41944;52.078;-0.058;2022-12-18T01:00:14;75;57;
56069;PMS5003;41944;52.078;-0.058;2022-12-18T01:02:42;85;73;
56069;PMS5003;41944;52.078;-0.058;2022-12-18T01:05:10;74;60;
56069;PMS5003;41944;52.078;-0.058;2022-12-18T01:07:38;71;56;
56069;PMS5003;41944;52.078;-0.058;2022-12-18T01:10:05;69;58;
56069;PMS5003;41944;52.078;-0.058;2022-12-18T01:12:34;85;68;
56069;PMS5003;41944;52.078;-0.058;2022-12-18T01:15:01;56;49;
56069;PMS5003;41944;52.078;-0.058;2022-12-18T01:17:28;68;53;
56069;PMS5003;41944;52.078;-0.058;2022-12-18T01:19:56;71;58;
56069;PMS5003;41944;52.078;-0.058;2022-12-18T01:22:23;63;53;
56069;PMS5003;41944;52.078;-0.058;2022-12-18T01:24:49;63;47;
56069;PMS5003;41944;52.078;-0.058;2022-12-18T01:27:17;60;49;
56069;PMS5003;41944;52.078;-0.058;2022-12-18T01:29:44;65;54;
56069;PMS5003;41944;52.078;-0.058;2022-12-18T01:32:11;65;51;
56069;PMS5003;41944;52.078;-0.058;2022-12-18T01:34:38;59;46;
56069;PMS5003;41944;52.078;-0.058;2022-12-18T01:37:05;68;55;
56069;PMS5003;41944;52.078;-0.058;2022-12-18T01:39:32;64;51;
56069;PMS5003;41944;52.078;-0.058;2022-12-18T01:42:00;67;53;
56069;PMS5003;41944;52.078;-0.058;2022-12-18T01:45:02;71;57;
56069;PMS5003;41944;52.078;-0.058;2022-12-18T01:47:33;58;46;
56069;PMS5003;41944;52.078;-0.058;2022-12-18T01:50:05;57;46;
56069;PMS5003;41944;52.078;-0.058;2022-12-18T01:52:35;49;45;
56069;PMS5003;41944;52.078;-0.058;2022-12-18T01:55:04;63;48;
56069;PMS5003;41944;52.078;-0.058;2022-12-18T01:57:32;70;57;
56069;PMS5003;41944;52.078;-0.058;2022-12-18T02:00:01;66;49;
56069;PMS5003;41944;52.078;-0.058;2022-12-18T02:02:31;63;55;
56069;PMS5003;41944;52.078;-0.058;2022-12-18T02:04:59;66;47;
56069;PMS5003;41944;52.078;-0.058;2022-12-18T02:07:30;74;51;
56069;PMS5003;41944;52.078;-0.058;2022-12-18T02:10:07;67;57;
56069;PMS5003;41944;52.078;-0.058;2022-12-18T02:12:48;65;54;
56069;PMS5003;41944;52.078;-0.058;2022-12-18T02:15:24;67;51;
56069;PMS5003;41944;52.078;-0.058;2022-12-18T02:17:57;57;47;
56069;PMS5003;41944;52.078;-0.058;2022-12-18T02:20:32;60;43;
56069;PMS5003;41944;52.078;-0.058;2022-12-18T02:23:06;65;51;
56069;PMS5003;41944;52.078;-0.058;2022-12-18T02:25:54;54;45;
56069;PMS5003;41944;52.078;-0.058;2022-12-18T02:28:32;59;50;
56069;PMS5003;41944;52.078;-0.058;2022-12-18T02:31:02;57;50;
56069;PMS5003;41944;52.078;-0.058;2022-12-18T02:33:34;66;51;
56069;PMS5003;41944;52.078;-0.058;2022-12-18T02:36:02;52;47;
56069;PMS5003;41944;52.078;-0.058;2022-12-18T02:38:32;61;52;
56069;PMS5003;41944;52.078;-0.058;2022-12-18T02:41:01;65;50;
56069;PMS5003;41944;52.078;-0.058;2022-12-18T02:43:30;60;49;
56069;PMS5003;41944;52.078;-0.058;2022-12-18T02:45:57;61;47;
56069;PMS5003;41944;52.078;-0.058;2022-12-18T02:48:28;57;42;
56069;PMS5003;41944;52.078;-0.058;2022-12-18T02:50:59;55;44;
56069;PMS5003;41944;52.078;-0.058;2022-12-18T02:53:36;53;43;
56069;PMS5003;41944;52.078;-0.058;2022-12-18T02:56:09;57;45;
56069;PMS5003;41944;52.078;-0.058;2022-12-18T02:58:45;59;46;
56069;PMS5003;41944;52.078;-0.058;2022-12-18T03:01:24;72;54;
56069;PMS5003;41944;52.078;-0.058;2022-12-18T03:03:59;63;52;
56069;PMS5003;41944;52.078;-0.058;2022-12-18T03:06:32;65;50;
56069;PMS5003;41944;52.078;-0.058;2022-12-18T03:09:06;65;51;
56069;PMS5003;41944;52.078;-0.058;2022-12-18T03:11:37;50;44;
56069;PMS5003;41944;52.078;-0.058;2022-12-18T03:14:09;60;47;
56069;PMS5003;41944;52.078;-0.058;2022-12-18T03:16:39;55;44;
56069;PMS5003;41944;52.078;-0.058;2022-12-18T03:19:10;65;50;
56069;PMS5003;41944;52.078;-0.058;2022-12-18T03:21:42;57;45;
56069;PMS5003;41944;52.078;-0.058;2022-12-18T03:24:12;51;46;
56069;PMS5003;41944;52.078;-0.058;2022-12-18T03:26:42;70;49;
56069;PMS5003;41944;52.078;-0.058;2022-12-18T03:29:14;53;47;
56069;PMS5003;41944;52.078;-0.058;2022-12-18T03:31:47;60;53;
56069;PMS5003;41944;52.078;-0.058;2022-12-18T03:34:21;53;43;
56069;PMS5003;41944;52.078;-0.058;2022-12-18T03:36:54;50;40;
56069;PMS5003;41944;52.078;-0.058;2022-12-18T03:39:21;48;41;
56069;PMS5003;41944;52.078;-0.058;2022-12-18T03:41:51;47;40;
56069;PMS5003;41944;52.078;-0.058;2022-12-18T03:44:27;50;41;
56069;PMS5003;41944;52.078;-0.058;2022-12-18T03:46:59;55;43;
56069;PMS5003;41944;52.078;-0.058;2022-12-18T03:49:34;52;44;
56069;PMS5003;41944;52.078;-0.058;2022-12-18T03:52:06;63;55;
56069;PMS5003;41944;52.078;-0.058;2022-12-18T03:54:37;54;42;
56069;PMS5003;41944;52.078;-0.058;2022-12-18T03:57:11;41;36;
56069;PMS5003;41944;52.078;-0.058;2022-12-18T03:59:43;53;41;
56069;PMS5003;41944;52.078;-0.058;2022-12-18T04:02:12;49;40;
56069;PMS5003;41944;52.078;-0.058;2022-12-18T04:04:40;59;39;
56069;PMS5003;41944;52.078;-0.058;2022-12-18T04:07:09;49;40;
56069;PMS5003;41944;52.078;-0.058;2022-12-18T04:09:36;60;51;
56069;PMS5003;41944;52.078;-0.058;2022-12-18T04:12:08;51;40;
56069;PMS5003;41944;52.078;-0.058;2022-12-18T04:14:35;57;45;
56069;PMS5003;41944;52.078;-0.058;2022-12-18T04:17:02;47;38;
56069;PMS5003;41944;52.078;-0.058;2022-12-18T04:19:29;51;40;
56069;PMS5003;41944;52.078;-0.058;2022-12-18T04:21:57;47;40;
56069;PMS5003;41944;52.078;-0.058;2022-12-18T04:24:24;51;40;
56069;PMS5003;41944;52.078;-0.058;2022-12-18T04:26:52;49;39;
56069;PMS5003;41944;52.078;-0.058;2022-12-18T04:29:19;56;43;
56069;PMS5003;41944;52.078;-0.058;2022-12-18T04:31:46;56;42;
56069;PMS5003;41944;52.078;-0.058;2022-12-18T04:34:14;53;45;
56069;PMS5003;41944;52.078;-0.058;2022-12-18T04:36:41;49;37;
56069;PMS5003;41944;52.078;-0.058;2022-12-18T04:39:08;56;42;
56069;PMS5003;41944;52.078;-0.058;2022-12-18T04:41:35;49;37;
56069;PMS5003;41944;52.078;-0.058;2022-12-18T04:44:03;51;43;
56069;PMS5003;41944;52.078;-0.058;2022-12-18T04:46:31;43;40;
56069;PMS5003;41944;52.078;-0.058;2022-12-18T04:48:58;51;43;
56069;PMS5003;41944;52.078;-0.058;2022-12-18T04:51:25;50;41;
56069;PMS5003;41944;52.078;-0.058;2022-12-18T04:53:52;49;42;
56069;PMS5003;41944;52.078;-0.058;2022-12-18T04:56:19;50;43;
56069;PMS5003;41944;52.078;-0.058;2022-12-18T04:58:46;62;50;
56069;PMS5003;41944;52.078;-0.058;2022-12-18T05:01:14;53;39;
56069;PMS5003;41944;52.078;-0.058;2022-12-18T05:03:43;43;38;
56069;PMS5003;41944;52.078;-0.058;2022-12-18T05:06:10;54;45;
56069;PMS5003;41944;52.078;-0.058;2022-12-18T05:08:37;49;43;
56069;PMS5003;41944;52.078;-0.058;2022-12-18T05:11:06;47;40;
56069;PMS5003;41944;52.078;-0.058;2022-12-18T05:13:35;45;37;
56069;PMS5003;41944;52.078;-0.058;2022-12-18T05:16:03;51;38;
56069;PMS5003;41944;52.078;-0.058;2022-12-18T05:18:31;40;36;
56069;PMS5003;41944;52.078;-0.058;2022-12-18T05:20:58;45;34;
56069;PMS5003;41944;52.078;-0.058;2022-12-18T05:23:26;47;39;
56069;PMS5003;41944;52.078;-0.058;2022-12-18T05:25:54;47;38;
56069;PMS5003;41944;52.078;-0.058;2022-12-18T05:28:23;48;39;
56069;PMS5003;41944;52.078;-0.058;2022-12-18T05:30:52;43;39;
56069;PMS5003;41944;52.078;-0.058;2022-12-18T05:33:21;46;38;
56069;PMS5003;41944;52.078;-0.058;2022-12-18T05:35:51;48;41;
56069;PMS5003;41944;52.078;-0.058;2022-12-18T05:38:18;51;42;
56069;PMS5003;41944;52.078;-0.058;2022-12-18T05:40:46;48;33;
56069;PMS5003;41944;52.078;-0.058;2022-12-18T05:43:14;50;36;
56069;PMS5003;41944;52.078;-0.058;2022-12-18T05:45:41;36;33;
56069;PMS5003;41944;52.078;-0.058;2022-12-18T05:48:08;39;32;
56069;PMS5003;41944;52.078;-0.058;2022-12-18T05:50:36;37;33;
56069;PMS5003;41944;52.078;-0.058;2022-12-18T05:53:06;47;42;
56069;PMS5003;41944;52.078;-0.058;2022-12-18T05:55:33;38;37;
56069;PMS5003;41944;52.078;-0.058;2022-12-18T05:58:01;49;38;
56069;PMS5003;41944;52.078;-0.058;2022-12-18T06:00:28;45;37;
56069;PMS5003;41944;52.078;-0.058;2022-12-18T06:02:56;42;38;
56069;PMS5003;41944;52.078;-0.058;2022-12-18T06:05:23;52;42;
56069;PMS5003;41944;52.078;-0.058;2022-12-18T06:07:50;41;35;
56069;PMS5003;41944;52.078;-0.058;2022-12-18T06:10:18;43;39;
56069;PMS5003;41944;52.078;-0.058;2022-12-18T06:12:45;46;41;
56069;PMS5003;41944;52.078;-0.058;2022-12-18T06:15:13;52;38;
56069;PMS5003;41944;52.078;-0.058;2022-12-18T06:17:40;39;32;
56069;PMS5003;41944;52.078;-0.058;2022-12-18T06:20:07;46;41;
56069;PMS5003;41944;52.078;-0.058;2022-12-18T06:22:35;40;35;
56069;PMS5003;41944;52.078;-0.058;2022-12-18T06:25:03;54;47;
56069;PMS5003;41944;52.078;-0.058;2022-12-18T06:27:32;54;43;
56069;PMS5003;41944;52.078;-0.058;2022-12-18T06:29:58;44;36;
56069;PMS5003;41944;52.078;-0.058;2022-12-18T06:32:25;51;47;
56069;PMS5003;41944;52.078;-0.058;2022-12-18T06:34:53;45;39;
56069;PMS5003;41944;52.078;-0.058;2022-12-18T06:37:20;48;40;
56069;PMS5003;41944;52.078;-0.058;2022-12-18T06:39:48;54;45;
56069;PMS5003;41944;52.078;-0.058;2022-12-18T06:42:15;44;40;
56069;PMS5003;41944;52.078;-0.058;2022-12-18T06:44:43;46;37;
56069;PMS5003;41944;52.078;-0.058;2022-12-18T06:47:10;51;46;
56069;PMS5003;41944;52.078;-0.058;2022-12-18T06:49:37;54;43;
56069;PMS5003;41944;52.078;-0.058;2022-12-18T06:52:04;48;39;
56069;PMS5003;41944;52.078;-0.058;2022-12-18T06:54:31;56;43;
56069;PMS5003;41944;52.078;-0.058;2022-12-18T06:56:57;50;44;
56069;PMS5003;41944;52.078;-0.058;2022-12-18T06:59:25;48;40;
56069;PMS5003;41944;52.078;-0.058;2022-12-18T07:01:52;49;41;
56069;PMS5003;41944;52.078;-0.058;2022-12-18T07:04:19;47;37;
56069;PMS5003;41944;52.078;-0.058;2022-12-18T07:06:46;63;48;
56069;PMS5003;41944;52.078;-0.058;2022-12-18T07:09:14;53;43;
56069;PMS5003;41944;52.078;-0.058;2022-12-18T07:11:40;49;41;
56069;PMS5003;41944;52.078;-0.058;2022-12-18T07:14:07;55;44;
56069;PMS5003;41944;52.078;-0.058;2022-12-18T07:16:34;44;39;
56069;PMS5003;41944;52.078;-0.058;2022-12-18T07:19:01;56;42;
56069;PMS5003;41944;52.078;-0.058;2022-12-18T07:21:29;53;49;
56069;PMS5003;41944;52.078;-0.058;2022-12-18T07:23:56;52;39;
56069;PMS5003;41944;52.078;-0.058;2022-12-18T07:26:22;46;41;
56069;PMS5003;41944;52.078;-0.058;2022-12-18T07:28:50;54;42;
56069;PMS5003;41944;52.078;-0.058;2022-12-18T07:31:21;48;41;
56069;PMS5003;41944;52.078;-0.058;2022-12-18T07:33:49;43;41;
56069;PMS5003;41944;52.078;-0.058;2022-12-18T07:36:17;50;42;
56069;PMS5003;41944;52.078;-0.058;2022-12-18T07:38:46;45;36;
56069;PMS5003;41944;52.078;-0.058;2022-12-18T07:41:14;45;42;
56069;PMS5003;41944;52.078;-0.058;2022-12-18T07:43:41;53;45;
56069;PMS5003;41944;52.078;-0.058;2022-12-18T07:46:09;48;39;
56069;PMS5003;41944;52.078;-0.058;2022-12-18T07:48:37;40;38;
56069;PMS5003;41944;52.078;-0.058;2022-12-18T07:51:05;44;40;
56069;PMS5003;41944;52.078;-0.058;2022-12-18T07:53:34;54;44;
56069;PMS5003;41944;52.078;-0.058;2022-12-18T07:56:03;44;35;
56069;PMS5003;41944;52.078;-0.058;2022-12-18T07:58:32;40;35;
56069;PMS5003;41944;52.078;-0.058;2022-12-18T08:01:04;47;39;
56069;PMS5003;41944;52.078;-0.058;2022-12-18T08:03:31;50;39;
56069;PMS5003;41944;52.078;-0.058;2022-12-18T08:06:00;43;35;
56069;PMS5003;41944;52.078;-0.058;2022-12-18T08:08:28;42;36;
56069;PMS5003;41944;52.078;-0.058;2022-12-18T08:10:56;50;38;
56069;PMS5003;41944;52.078;-0.058;2022-12-18T08:13:23;42;38;
56069;PMS5003;41944;52.078;-0.058;2022-12-18T08:15:55;46;40;
56069;PMS5003;41944;52.078;-0.058;2022-12-18T08:18:23;43;37;
56069;PMS5003;41944;52.078;-0.058;2022-12-18T08:20:51;52;43;
56069;PMS5003;41944;52.078;-0.058;2022-12-18T08:23:18;44;39;
56069;PMS5003;41944;52.078;-0.058;2022-12-18T08:25:46;43;37;
56069;PMS5003;41944;52.078;-0.058;2022-12-18T08:28:13;40;35;
56069;PMS5003;41944;52.078;-0.058;2022-12-18T08:30:43;51;37;
56069;PMS5003;41944;52.078;-0.058;2022-12-18T08:33:10;47;37;
56069;PMS5003;41944;52.078;-0.058;2022-12-18T08:35:37;39;34;
56069;PMS5003;41944;52.078;-0.058;2022-12-18T08:38:04;46;35;
56069;PMS5003;41944;52.078;-0.058;2022-12-18T08:40:31;54;39;
56069;PMS5003;41944;52.078;-0.058;2022-12-18T08:42:58;39;37;
56069;PMS5003;41944;52.078;-0.058;2022-12-18T08:45:25;49;41;
56069;PMS5003;41944;52.078;-0.058;2022-12-18T08:47:52;44;37;
56069;PMS5003;41944;52.078;-0.058;2022-12-18T08:50:19;49;38;
56069;PMS5003;41944;52.078;-0.058;2022-12-18T08:52:46;51;41;
56069;PMS5003;41944;52.078;-0.058;2022-12-18T08:55:13;43;35;
56069;PMS5003;41944;52.078;-0.058;2022-12-18T08:57:41;49;35;
56069;PMS5003;41944;52.078;-0.058;2022-12-18T09:00:08;40;36;
56069;PMS5003;41944;52.078;-0.058;2022-12-18T09:02:37;46;39;
56069;PMS5003;41944;52.078;-0.058;2022-12-18T09:05:04;48;41;
56069;PMS5003;41944;52.078;-0.058;2022-12-18T09:07:32;46;39;
56069;PMS5003;41944;52.078;-0.058;2022-12-18T09:09:59;48;39;
56069;PMS5003;41944;52.078;-0.058;2022-12-18T09:12:27;43;38;
56069;PMS5003;41944;52.078;-0.058;2022-12-18T09:14:54;42;36;
56069;PMS5003;41944;52.078;-0.058;2022-12-18T09:17:20;39;35;
56069;PMS5003;41944;52.078;-0.058;2022-12-18T09:19:48;46;40;
56069;PMS5003;41944;52.078;-0.058;2022-12-18T09:22:15;43;39;
56069;PMS5003;41944;52.078;-0.058;2022-12-18T09:24:42;54;39;
56069;PMS5003;41944;52.078;-0.058;2022-12-18T09:27:09;46;36;
56069;PMS5003;41944;52.078;-0.058;2022-12-18T09:29:36;44;33;
56069;PMS5003;41944;52.078;-0.058;2022-12-18T09:32:03;43;38;
56069;PMS5003;41944;52.078;-0.058;2022-12-18T09:34:30;40;39;
56069;PMS5003;41944;52.078;-0.058;2022-12-18T09:36:58;50;40;
56069;PMS5003;41944;52.078;-0.058;2022-12-18T09:39:24;41;34;
56069;PMS5003;41944;52.078;-0.058;2022-12-18T09:41:52;39;33;
56069;PMS5003;41944;52.078;-0.058;2022-12-18T09:44:23;47;39;
56069;PMS5003;41944;52.078;-0.058;2022-12-18T09:46:54;42;33;
56069;PMS5003;41944;52.078;-0.058;2022-12-18T09:49:30;42;34;
56069;PMS5003;41944;52.078;-0.058;2022-12-18T09:52:02;36;36;
56069;PMS5003;41944;52.078;-0.058;2022-12-18T09:54:31;50;38;
56069;PMS5003;41944;52.078;-0.058;2022-12-18T09:57:02;42;36;
56069;PMS5003;41944;52.078;-0.058;2022-12-18T09:59:30;42;36;
56069;PMS5003;41944;52.078;-0.058;2022-12-18T10:02:10;40;36;
56069;PMS5003;41944;52.078;-0.058;2022-12-18T10:04:41;43;36;
56069;PMS5003;41944;52.078;-0.058;2022-12-18T10:07:09;37;37;
56069;PMS5003;41944;52.078;-0.058;2022-12-18T10:09:42;41;36;
56069;PMS5003;41944;52.078;-0.058;2022-12-18T10:12:19;42;37;
56069;PMS5003;41944;52.078;-0.058;2022-12-18T10:14:53;45;38;
56069;PMS5003;41944;52.078;-0.058;2022-12-18T10:17:28;39;36;
56069;PMS5003;41944;52.078;-0.058;2022-12-18T10:20:05;47;37;
56069;PMS5003;41944;52.078;-0.058;2022-12-18T10:22:42;37;33;
56069;PMS5003;41944;52.078;-0.058;2022-12-18T10:25:18;42;37;
56069;PMS5003;41944;52.078;-0.058;2022-12-18T10:27:51;42;42;
56069;PMS5003;41944;52.078;-0.058;2022-12-18T10:30:21;49;40;
56069;PMS5003;41944;52.078;-0.058;2022-12-18T10:32:50;69;62;
56069;PMS5003;41944;52.078;-0.058;2022-12-18T10:35:19;43;39;
56069;PMS5003;41944;52.078;-0.058;2022-12-18T10:38:05;37;33;
56069;PMS5003;41944;52.078;-0.058;2022-12-18T10:40:50;39;32;
56069;PMS5003;41944;52.078;-0.058;2022-12-18T10:43:20;44;35;
56069;PMS5003;41944;52.078;-0.058;2022-12-18T10:45:58;40;36;
56069;PMS5003;41944;52.078;-0.058;2022-12-18T10:48:28;36;34;
56069;PMS5003;41944;52.078;-0.058;2022-12-18T10:50:57;43;38;
56069;PMS5003;41944;52.078;-0.058;2022-12-18T10:53:27;45;41;
56069;PMS5003;41944;52.078;-0.058;2022-12-18T10:55:56;54;51;
56069;PMS5003;41944;52.078;-0.058;2022-12-18T10:58:26;45;42;
56069;PMS5003;41944;52.078;-0.058;2022-12-18T11:01:03;50;42;
56069;PMS5003;41944;52.078;-0.058;2022-12-18T11:03:34;67;63;
56069;PMS5003;41944;52.078;-0.058;2022-12-18T11:06:04;42;37;
56069;PMS5003;41944;52.078;-0.058;2022-12-18T11:08:33;58;47;
56069;PMS5003;41944;52.078;-0.058;2022-12-18T11:11:00;115;105;
56069;PMS5003;41944;52.078;-0.058;2022-12-18T11:13:29;47;44;
56069;PMS5003;41944;52.078;-0.058;2022-12-18T11:15:57;58;48;
56069;PMS5003;41944;52.078;-0.058;2022-12-18T11:18:27;47;43;
56069;PMS5003;41944;52.078;-0.058;2022-12-18T11:20:57;48;38;
56069;PMS5003;41944;52.078;-0.058;2022-12-18T11:23:27;42;38;
56069;PMS5003;41944;52.078;-0.058;2022-12-18T11:25:56;45;43;
56069;PMS5003;41944;52.078;-0.058;2022-12-18T11:28:27;54;49;
56069;PMS5003;41944;52.078;-0.058;2022-12-18T11:31:18;52;45;
56069;PMS5003;41944;52.078;-0.058;2022-12-18T11:33:50;51;43;
56069;PMS5003;41944;52.078;-0.058;2022-12-18T11:36:22;61;55;
56069;PMS5003;41944;52.078;-0.058;2022-12-18T11:38:51;52;42;
56069;PMS5003;41944;52.078;-0.058;2022-12-18T11:41:23;51;46;
56069;PMS5003;41944;52.078;-0.058;2022-12-18T11:43:55;68;53;
56069;PMS5003;41944;52.078;-0.058;2022-12-18T11:46:26;51;46;
56069;PMS5003;41944;52.078;-0.058;2022-12-18T11:49:01;47;40;
56069;PMS5003;41944;52.078;-0.058;2022-12-18T11:51:34;47;42;
56069;PMS5003;41944;52.078;-0.058;2022-12-18T11:54:09;53;49;
56069;PMS5003;41944;52.078;-0.058;2022-12-18T11:56:41;39;36;
56069;PMS5003;41944;52.078;-0.058;2022-12-18T11:59:15;45;42;
56069;PMS5003;41944;52.078;-0.058;2022-12-18T12:01:51;71;61;
56069;PMS5003;41944;52.078;-0.058;2022-12-18T12:06:34;71;61;
56069;PMS5003;41944;52.078;-0.058;2022-12-18T12:09:10;57;52;
56069;PMS5003;41944;52.078;-0.058;2022-12-18T12:11:47;65;54;
56069;PMS5003;41944;52.078;-0.058;2022-12-18T12:14:25;64;52;
56069;PMS5003;41944;52.078;-0.058;2022-12-18T12:17:03;56;49;
56069;PMS5003;41944;52.078;-0.058;2022-12-18T12:19:36;66;60;
56069;PMS5003;41944;52.078;-0.058;2022-12-18T12:22:13;66;54;
56069;PMS5003;41944;52.078;-0.058;2022-12-18T12:24:51;61;56;
56069;PMS5003;41944;52.078;-0.058;2022-12-18T12:27:30;63;47;
56069;PMS5003;41944;52.078;-0.058;2022-12-18T12:30:08;58;53;
56069;PMS5003;41944;52.078;-0.058;2022-12-18T12:32:44;62;51;
56069;PMS5003;41944;52.078;-0.058;2022-12-18T12:35:25;59;53;
56069;PMS5003;41944;52.078;-0.058;2022-12-18T12:38:05;64;58;
56069;PMS5003;41944;52.078;-0.058;2022-12-18T12:40:39;69;63;
56069;PMS5003;41944;52.078;-0.058;2022-12-18T12:43:15;66;58;
56069;PMS5003;41944;52.078;-0.058;2022-12-18T12:45:49;58;54;
56069;PMS5003;41944;52.078;-0.058;2022-12-18T12:48:22;63;53;
56069;PMS5003;41944;52.078;-0.058;2022-12-18T12:50:58;56;49;
56069;PMS5003;41944;52.078;-0.058;2022-12-18T12:53:30;65;55;
56069;PMS5003;41944;52.078;-0.058;2022-12-18T12:56:01;64;61;
56069;PMS5003;41944;52.078;-0.058;2022-12-18T12:58:32;62;54;
56069;PMS5003;41944;52.078;-0.058;2022-12-18T13:01:09;69;55;
56069;PMS5003;41944;52.078;-0.058;2022-12-18T13:03:44;64;54;
56069;PMS5003;41944;52.078;-0.058;2022-12-18T13:06:22;64;51;
56069;PMS5003;41944;52.078;-0.058;2022-12-18T13:08:57;66;55;
56069;PMS5003;41944;52.078;-0.058;2022-12-18T13:11:30;64;56;
56069;PMS5003;41944;52.078;-0.058;2022-12-18T13:14:01;62;54;
56069;PMS5003;41944;52.078;-0.058;2022-12-18T13:16:29;61;55;
56069;PMS5003;41944;52.078;-0.058;2022-12-18T13:18:56;56;55;
56069;PMS5003;41944;52.078;-0.058;2022-12-18T13:21:24;62;54;
56069;PMS5003;41944;52.078;-0.058;2022-12-18T13:23:54;57;51;
56069;PMS5003;41944;52.078;-0.058;2022-12-18T13:26:30;57;53;
56069;PMS5003;41944;52.078;-0.058;2022-12-18T13:28:59;70;58;
56069;PMS5003;41944;52.078;-0.058;2022-12-18T13:31:59;57;54;
56069;PMS5003;41944;52.078;-0.058;2022-12-18T13:34:28;61;54;
56069;PMS5003;41944;52.078;-0.058;2022-12-18T13:36:56;80;65;
56069;PMS5003;41944;52.078;-0.058;2022-12-18T13:40:06;67;60;
56069;PMS5003;41944;52.078;-0.058;2022-12-18T13:43:26;71;60;
56069;PMS5003;41944;52.078;-0.058;2022-12-18T13:45:59;63;58;
56069;PMS5003;41944;52.078;-0.058;2022-12-18T13:48:29;64;58;
56069;PMS5003;41944;52.078;-0.058;2022-12-18T13:50:59;66;60;
56069;PMS5003;41944;52.078;-0.058;2022-12-18T13:53:30;68;59;
56069;PMS5003;41944;52.078;-0.058;2022-12-18T13:56:02;70;58;
56069;PMS5003;41944;52.078;-0.058;2022-12-18T13:58:30;63;57;
56069;PMS5003;41944;52.078;-0.058;2022-12-18T14:00:56;66;60;
56069;PMS5003;41944;52.078;-0.058;2022-12-18T14:03:25;75;69;
56069;PMS5003;41944;52.078;-0.058;2022-12-18T14:05:55;70;65;
56069;PMS5003;41944;52.078;-0.058;2022-12-18T14:08:27;72;65;
56069;PMS5003;41944;52.078;-0.058;2022-12-18T14:11:00;122;96;
56069;PMS5003;41944;52.078;-0.058;2022-12-18T14:13:30;86;74;
56069;PMS5003;41944;52.078;-0.058;2022-12-18T14:16:00;76;65;
56069;PMS5003;41944;52.078;-0.058;2022-12-18T14:18:30;68;63;
56069;PMS5003;41944;52.078;-0.058;2022-12-18T14:21:03;63;58;
56069;PMS5003;41944;52.078;-0.058;2022-12-18T14:23:33;64;57;
56069;PMS5003;41944;52.078;-0.058;2022-12-18T14:26:02;60;50;
56069;PMS5003;41944;52.078;-0.058;2022-12-18T14:28:46;71;68;
56069;PMS5003;41944;52.078;-0.058;2022-12-18T14:31:16;71;64;
56069;PMS5003;41944;52.078;-0.058;2022-12-18T14:33:45;74;63;
56069;PMS5003;41944;52.078;-0.058;2022-12-18T14:36:15;93;82;
56069;PMS5003;41944;52.078;-0.058;2022-12-18T14:38:47;63;60;
56069;PMS5003;41944;52.078;-0.058;2022-12-18T14:41:16;63;54;
56069;PMS5003;41944;52.078;-0.058;2022-12-18T14:43:45;63;55;
56069;PMS5003;41944;52.078;-0.058;2022-12-18T14:46:30;88;75;
56069;PMS5003;41944;52.078;-0.058;2022-12-18T14:49:01;65;58;
56069;PMS5003;41944;52.078;-0.058;2022-12-18T14:51:31;73;66;
56069;PMS5003;41944;52.078;-0.058;2022-12-18T14:54:00;77;63;
56069;PMS5003;41944;52.078;-0.058;2022-12-18T14:56:30;66;60;
56069;PMS5003;41944;52.078;-0.058;2022-12-18T14:58:58;53;47;
56069;PMS5003;41944;52.078;-0.058;2022-12-18T15:01:27;56;48;
56069;PMS5003;41944;52.078;-0.058;2022-12-18T15:03:56;41;37;
56069;PMS5003;41944;52.078;-0.058;2022-12-18T15:06:28;49;44;
56069;PMS5003;41944;52.078;-0.058;2022-12-18T15:08:57;56;51;
56069;PMS5003;41944;52.078;-0.058;2022-12-18T15:11:27;61;56;
56069;PMS5003;41944;52.078;-0.058;2022-12-18T15:13:58;58;53;
56069;PMS5003;41944;52.078;-0.058;2022-12-18T15:16:25;53;46;
56069;PMS5003;41944;52.078;-0.058;2022-12-18T15:18:52;48;42;
56069;PMS5003;41944;52.078;-0.058;2022-12-18T15:21:20;49;44;
56069;PMS5003;41944;52.078;-0.058;2022-12-18T15:23:48;51;44;
56069;PMS5003;41944;52.078;-0.058;2022-12-18T15:26:17;56;48;
56069;PMS5003;41944;52.078;-0.058;2022-12-18T15:28:47;43;37;
56069;PMS5003;41944;52.078;-0.058;2022-12-18T15:31:21;34;33;
56069;PMS5003;41944;52.078;-0.058;2022-12-18T15:34:00;48;43;
56069;PMS5003;41944;52.078;-0.058;2022-12-18T15:36:36;31;31;
56069;PMS5003;41944;52.078;-0.058;2022-12-18T15:39:03;34;32;
56069;PMS5003;41944;52.078;-0.058;2022-12-18T15:41:32;33;30;
56069;PMS5003;41944;52.078;-0.058;2022-12-18T15:44:01;38;32;
56069;PMS5003;41944;52.078;-0.058;2022-12-18T15:46:30;31;29;
56069;PMS5003;41944;52.078;-0.058;2022-12-18T15:48:57;33;30;
56069;PMS5003;41944;52.078;-0.058;2022-12-18T15:51:26;26;26;
56069;PMS5003;41944;52.078;-0.058;2022-12-18T15:53:55;28;25;
56069;PMS5003;41944;52.078;-0.058;2022-12-18T15:56:24;34;28;
56069;PMS5003;41944;52.078;-0.058;2022-12-18T15:58:52;28;24;
56069;PMS5003;41944;52.078;-0.058;2022-12-18T16:01:19;27;26;
56069;PMS5003;41944;52.078;-0.058;2022-12-18T16:03:47;28;25;
56069;PMS5003;41944;52.078;-0.058;2022-12-18T16:06:15;32;27;
56069;PMS5003;41944;52.078;-0.058;2022-12-18T16:08:42;25;23;
56069;PMS5003;41944;52.078;-0.058;2022-12-18T16:11:11;27;23;
56069;PMS5003;41944;52.078;-0.058;2022-12-18T16:13:47;36;30;
56069;PMS5003;41944;52.078;-0.058;2022-12-18T16:16:14;27;25;
56069;PMS5003;41944;52.078;-0.058;2022-12-18T16:18:41;30;24;
56069;PMS5003;41944;52.078;-0.058;2022-12-18T16:21:09;22;21;
56069;PMS5003;41944;52.078;-0.058;2022-12-18T16:23:35;22;22;